sensor_id;sensor_type;location;lat;lon;timestamp;temperature;humidity
4960;DHT22;2495;48.200;11.532;2023-02-11T02:38:06;2.10;67.00
4960;DHT22;2495;48.200;11.532;2023-02-11T02:43:30;2.10;67.30
4960;DHT22;2495;48.200;11.532;2023-02-11T02:48:34;2.10;66.80
4960;DHT22;2495;48.200;11.532;2023-02-11T03:06:56;2.40;67.50
4960;DHT22;2495;48.200;11.532;2023-02-11T03:12:18;2.30;67.50
4960;DHT22;2495;48.200;11.532;2023-02-11T03:17:35;2.20;67.60
4960;DHT22;2495;48.200;11.532;2023-02-11T03:28:16;2.30;68.80
4960;DHT22;2495;48.200;11.532;2023-02-11T03:33:24;2.50;67.70
4960;DHT22;2495;48.200;11.532;2023-02-11T03:38:32;2.40;67.20
4960;DHT22;2495;48.200;11.532;2023-02-11T03:43:34;2.40;67.00
4960;DHT22;2495;48.200;11.532;2023-02-11T03:48:38;2.30;66.70
4960;DHT22;2495;48.200;11.532;2023-02-11T03:53:39;2.20;66.80
4960;DHT22;2495;48.200;11.532;2023-02-11T03:58:39;2.20;66.50
4960;DHT22;2495;48.200;11.532;2023-02-11T04:03:41;2.50;67.50
4960;DHT22;2495;48.200;11.532;2023-02-11T04:08:42;2.60;66.30
4960;DHT22;2495;48.200;11.532;2023-02-11T04:13:43;2.50;66.00
4960;DHT22;2495;48.200;11.532;2023-02-11T04:18:44;2.40;65.60
4960;DHT22;2495;48.200;11.532;2023-02-11T04:23:46;2.30;65.60
4960;DHT22;2495;48.200;11.532;2023-02-11T04:28:47;2.30;65.90
4960;DHT22;2495;48.200;11.532;2023-02-11T04:33:48;2.20;66.00
4960;DHT22;2495;48.200;11.532;2023-02-11T04:38:49;2.20;66.10
4960;DHT22;2495;48.200;11.532;2023-02-11T04:43:50;2.20;66.10
4960;DHT22;2495;48.200;11.532;2023-02-11T04:48:52;2.10;66.40
4960;DHT22;2495;48.200;11.532;2023-02-11T04:53:53;2.10;66.80
4960;DHT22;2495;48.200;11.532;2023-02-11T04:58:54;2.00;67.00
4960;DHT22;2495;48.200;11.532;2023-02-11T05:03:55;2.00;67.00
4960;DHT22;2495;48.200;11.532;2023-02-11T05:08:57;2.00;67.00
4960;DHT22;2495;48.200;11.532;2023-02-11T05:13:58;1.90;67.20
4960;DHT22;2495;48.200;11.532;2023-02-11T05:18:59;1.80;67.50
4960;DHT22;2495;48.200;11.532;2023-02-11T05:24:00;1.90;67.60
4960;DHT22;2495;48.200;11.532;2023-02-11T05:29:02;1.90;67.40
4960;DHT22;2495;48.200;11.532;2023-02-11T05:34:03;2.00;67.30
4960;DHT22;2495;48.200;11.532;2023-02-11T05:39:04;2.20;67.00
4960;DHT22;2495;48.200;11.532;2023-02-11T05:44:05;2.10;66.80
4960;DHT22;2495;48.200;11.532;2023-02-11T05:49:06;2.10;66.90
4960;DHT22;2495;48.200;11.532;2023-02-11T05:54:08;2.20;66.60
4960;DHT22;2495;48.200;11.532;2023-02-11T05:59:10;2.20;66.40
4960;DHT22;2495;48.200;11.532;2023-02-11T06:04:10;2.30;66.20
4960;DHT22;2495;48.200;11.532;2023-02-11T06:09:11;2.70;67.10
4960;DHT22;2495;48.200;11.532;2023-02-11T06:14:13;2.80;65.90
4960;DHT22;2495;48.200;11.532;2023-02-11T06:19:14;2.80;65.30
4960;DHT22;2495;48.200;11.532;2023-02-11T06:24:15;2.80;64.90
4960;DHT22;2495;48.200;11.532;2023-02-11T06:29:16;2.80;64.60
4960;DHT22;2495;48.200;11.532;2023-02-11T06:34:18;2.80;64.60
4960;DHT22;2495;48.200;11.532;2023-02-11T06:39:19;2.80;64.60
4960;DHT22;2495;48.200;11.532;2023-02-11T06:44:20;3.10;65.50
4960;DHT22;2495;48.200;11.532;2023-02-11T06:49:21;3.20;64.30
4960;DHT22;2495;48.200;11.532;2023-02-11T06:54:23;3.20;63.80
4960;DHT22;2495;48.200;11.532;2023-02-11T06:59:24;3.20;63.90
4960;DHT22;2495;48.200;11.532;2023-02-11T07:04:25;3.20;63.50
4960;DHT22;2495;48.200;11.532;2023-02-11T07:09:26;3.20;63.50
4960;DHT22;2495;48.200;11.532;2023-02-11T07:14:27;3.30;63.20
4960;DHT22;2495;48.200;11.532;2023-02-11T07:19:29;3.30;63.00
4960;DHT22;2495;48.200;11.532;2023-02-11T07:24:30;3.30;62.70
4960;DHT22;2495;48.200;11.532;2023-02-11T07:29:47;3.30;62.80
4960;DHT22;2495;48.200;11.532;2023-02-11T07:35:09;3.40;63.60
4960;DHT22;2495;48.200;11.532;2023-02-11T07:40:50;3.40;63.20
4960;DHT22;2495;48.200;11.532;2023-02-11T07:46:22;3.50;63.30
4960;DHT22;2495;48.200;11.532;2023-02-11T08:07:40;3.90;62.30
4960;DHT22;2495;48.200;11.532;2023-02-11T08:12:42;4.10;61.60
4960;DHT22;2495;48.200;11.532;2023-02-11T08:23:06;4.70;60.40
4960;DHT22;2495;48.200;11.532;2023-02-11T08:28:07;4.90;59.90
4960;DHT22;2495;48.200;11.532;2023-02-11T08:33:09;5.00;59.50
4960;DHT22;2495;48.200;11.532;2023-02-11T08:38:10;5.00;58.30
4960;DHT22;2495;48.200;11.532;2023-02-11T08:43:11;5.10;58.60
4960;DHT22;2495;48.200;11.532;2023-02-11T09:17:03;5.70;57.50
4960;DHT22;2495;48.200;11.532;2023-02-11T09:22:35;5.70;57.40
4960;DHT22;2495;48.200;11.532;2023-02-11T09:27:39;6.00;57.40
4960;DHT22;2495;48.200;11.532;2023-02-11T09:33:00;6.20;56.60
4960;DHT22;2495;48.200;11.532;2023-02-11T09:38:02;6.20;56.30
4960;DHT22;2495;48.200;11.532;2023-02-11T09:43:18;6.40;55.70
4960;DHT22;2495;48.200;11.532;2023-02-11T09:48:19;6.40;56.30
4960;DHT22;2495;48.200;11.532;2023-02-11T09:53:23;7.90;54.60
4960;DHT22;2495;48.200;11.532;2023-02-11T09:58:33;8.90;51.90
4960;DHT22;2495;48.200;11.532;2023-02-11T10:15:02;9.60;49.50
4960;DHT22;2495;48.200;11.532;2023-02-11T10:25:38;9.00;50.30
4960;DHT22;2495;48.200;11.532;2023-02-11T10:35:58;9.30;49.80
4960;DHT22;2495;48.200;11.532;2023-02-11T10:40:59;11.00;48.60
4960;DHT22;2495;48.200;11.532;2023-02-11T10:46:01;11.20;45.20
4960;DHT22;2495;48.200;11.532;2023-02-11T10:51:24;11.40;45.20
4960;DHT22;2495;48.200;11.532;2023-02-11T10:56:27;12.20;45.30
4960;DHT22;2495;48.200;11.532;2023-02-11T11:01:45;12.70;42.80
4960;DHT22;2495;48.200;11.532;2023-02-11T11:06:45;12.30;43.30
4960;DHT22;2495;48.200;11.532;2023-02-11T11:11:52;11.40;43.00
4960;DHT22;2495;48.200;11.532;2023-02-11T11:16:54;11.10;44.30
4960;DHT22;2495;48.200;11.532;2023-02-11T11:21:55;10.80;45.00
4960;DHT22;2495;48.200;11.532;2023-02-11T11:26:57;10.70;44.90
4960;DHT22;2495;48.200;11.532;2023-02-11T11:31:58;10.70;44.20
4960;DHT22;2495;48.200;11.532;2023-02-11T11:36:59;11.00;43.30
4960;DHT22;2495;48.200;11.532;2023-02-11T11:42:04;12.10;42.00
4960;DHT22;2495;48.200;11.532;2023-02-11T11:52:17;14.00;41.50
4960;DHT22;2495;48.200;11.532;2023-02-11T11:57:20;15.40;38.90
4960;DHT22;2495;48.200;11.532;2023-02-11T12:30:21;11.40;43.00
4960;DHT22;2495;48.200;11.532;2023-02-11T13:01:42;11.10;43.00
4960;DHT22;2495;48.200;11.532;2023-02-11T13:06:49;11.40;42.70
4960;DHT22;2495;48.200;11.532;2023-02-11T13:11:48;12.30;41.50
4960;DHT22;2495;48.200;11.532;2023-02-11T13:16:48;13.70;39.50
4960;DHT22;2495;48.200;11.532;2023-02-11T13:22:00;16.10;36.90
4960;DHT22;2495;48.200;11.532;2023-02-11T13:27:08;17.80;34.90
4960;DHT22;2495;48.200;11.532;2023-02-11T13:32:13;18.00;30.80
4960;DHT22;2495;48.200;11.532;2023-02-11T13:37:21;17.10;32.80
4960;DHT22;2495;48.200;11.532;2023-02-11T13:54:04;14.40;36.90
4960;DHT22;2495;48.200;11.532;2023-02-11T13:59:42;13.70;36.70
4960;DHT22;2495;48.200;11.532;2023-02-11T14:04:20;13.30;37.50
4960;DHT22;2495;48.200;11.532;2023-02-11T14:09:41;13.00;39.00
4960;DHT22;2495;48.200;11.532;2023-02-11T14:20:30;13.20;41.00
4960;DHT22;2495;48.200;11.532;2023-02-11T14:25:27;13.00;40.70
4960;DHT22;2495;48.200;11.532;2023-02-11T14:30:31;12.70;41.30
4960;DHT22;2495;48.200;11.532;2023-02-11T14:35:43;12.40;42.10
4960;DHT22;2495;48.200;11.532;2023-02-11T14:46:05;11.70;43.70
4960;DHT22;2495;48.200;11.532;2023-02-11T14:51:13;11.60;44.10
4960;DHT22;2495;48.200;11.532;2023-02-11T14:56:30;11.50;44.90
4960;DHT22;2495;48.200;11.532;2023-02-11T15:01:34;11.50;45.30
4960;DHT22;2495;48.200;11.532;2023-02-11T15:06:41;11.50;45.60
4960;DHT22;2495;48.200;11.532;2023-02-11T15:11:42;11.40;45.80
4960;DHT22;2495;48.200;11.532;2023-02-11T15:16:43;11.30;46.00
4960;DHT22;2495;48.200;11.532;2023-02-11T15:21:44;11.20;46.50
4960;DHT22;2495;48.200;11.532;2023-02-11T15:27:34;11.20;46.80
4960;DHT22;2495;48.200;11.532;2023-02-11T15:32:02;11.10;47.20
4960;DHT22;2495;48.200;11.532;2023-02-11T15:37:04;11.10;47.30
4960;DHT22;2495;48.200;11.532;2023-02-11T15:42:24;11.00;47.30
4960;DHT22;2495;48.200;11.532;2023-02-11T15:47:27;10.80;48.00
4960;DHT22;2495;48.200;11.532;2023-02-11T15:52:28;10.70;48.70
4960;DHT22;2495;48.200;11.532;2023-02-11T15:57:31;10.90;48.50
4960;DHT22;2495;48.200;11.532;2023-02-11T16:02:33;10.80;47.90
4960;DHT22;2495;48.200;11.532;2023-02-11T16:18:22;10.50;49.00
4960;DHT22;2495;48.200;11.532;2023-02-11T16:23:35;10.40;49.10
4960;DHT22;2495;48.200;11.532;2023-02-11T16:28:36;10.30;49.40
4960;DHT22;2495;48.200;11.532;2023-02-11T16:33:37;10.40;50.10
4960;DHT22;2495;48.200;11.532;2023-02-11T16:38:39;10.70;50.20
4960;DHT22;2495;48.200;11.532;2023-02-11T16:43:40;10.70;49.50
4960;DHT22;2495;48.200;11.532;2023-02-11T16:48:41;10.50;49.50
4960;DHT22;2495;48.200;11.532;2023-02-11T16:53:43;10.40;50.50
4960;DHT22;2495;48.200;11.532;2023-02-11T16:58:45;10.50;51.10
4960;DHT22;2495;48.200;11.532;2023-02-11T17:03:46;10.50;50.10
4960;DHT22;2495;48.200;11.532;2023-02-11T17:08:47;10.20;50.10
4960;DHT22;2495;48.200;11.532;2023-02-11T17:13:48;10.00;50.40
4960;DHT22;2495;48.200;11.532;2023-02-11T17:18:50;9.80;51.70
4960;DHT22;2495;48.200;11.532;2023-02-11T17:23:51;10.00;52.00
4960;DHT22;2495;48.200;11.532;2023-02-11T17:28:52;10.10;52.10
4960;DHT22;2495;48.200;11.532;2023-02-11T17:33:54;10.00;51.30
4960;DHT22;2495;48.200;11.532;2023-02-11T17:38:55;9.90;52.30
4960;DHT22;2495;48.200;11.532;2023-02-11T17:43:57;9.80;51.60
4960;DHT22;2495;48.200;11.532;2023-02-11T17:48:58;9.70;51.80
4960;DHT22;2495;48.200;11.532;2023-02-11T18:04:31;9.50;53.50
4960;DHT22;2495;48.200;11.532;2023-02-11T18:09:39;9.40;53.30
4960;DHT22;2495;48.200;11.532;2023-02-11T18:14:44;9.30;54.10
4960;DHT22;2495;48.200;11.532;2023-02-11T18:19:49;9.10;55.00
4960;DHT22;2495;48.200;11.532;2023-02-11T18:25:15;9.00;54.00
4960;DHT22;2495;48.200;11.532;2023-02-11T18:30:32;8.90;54.20
4960;DHT22;2495;48.200;11.532;2023-02-11T18:35:31;8.80;55.20
4960;DHT22;2495;48.200;11.532;2023-02-11T18:40:41;8.60;55.60
4960;DHT22;2495;48.200;11.532;2023-02-11T18:45:48;8.70;56.80
4960;DHT22;2495;48.200;11.532;2023-02-11T18:51:24;8.80;56.10
4960;DHT22;2495;48.200;11.532;2023-02-11T18:56:26;8.80;56.60
4960;DHT22;2495;48.200;11.532;2023-02-11T19:07:24;8.70;58.00
4960;DHT22;2495;48.200;11.532;2023-02-11T19:12:23;9.10;58.00
4960;DHT22;2495;48.200;11.532;2023-02-11T19:17:27;9.10;56.30
4960;DHT22;2495;48.200;11.532;2023-02-11T19:22:29;9.00;56.50
4960;DHT22;2495;48.200;11.532;2023-02-11T19:27:31;8.90;56.20
4960;DHT22;2495;48.200;11.532;2023-02-11T19:32:36;8.90;57.40
4960;DHT22;2495;48.200;11.532;2023-02-11T19:37:37;9.20;57.40
4960;DHT22;2495;48.200;11.532;2023-02-11T19:42:39;9.20;56.50
4960;DHT22;2495;48.200;11.532;2023-02-11T19:47:41;9.00;56.40
4960;DHT22;2495;48.200;11.532;2023-02-11T19:52:42;8.80;56.30
4960;DHT22;2495;48.200;11.532;2023-02-11T20:24:30;9.60;57.60
4960;DHT22;2495;48.200;11.532;2023-02-11T20:29:31;9.40;56.50
4960;DHT22;2495;48.200;11.532;2023-02-11T20:34:33;9.20;56.20
4960;DHT22;2495;48.200;11.532;2023-02-11T20:39:34;9.00;56.30
4960;DHT22;2495;48.200;11.532;2023-02-11T20:44:36;8.80;56.10
4960;DHT22;2495;48.200;11.532;2023-02-11T20:49:37;8.70;56.70
4960;DHT22;2495;48.200;11.532;2023-02-11T20:54:40;8.60;56.60
4960;DHT22;2495;48.200;11.532;2023-02-11T20:59:44;8.50;56.90
4960;DHT22;2495;48.200;11.532;2023-02-11T21:04:45;8.50;57.20
4960;DHT22;2495;48.200;11.532;2023-02-11T21:09:47;8.50;57.40
4960;DHT22;2495;48.200;11.532;2023-02-11T21:14:48;8.40;58.20
4960;DHT22;2495;48.200;11.532;2023-02-11T21:19:53;8.20;58.30
4960;DHT22;2495;48.200;11.532;2023-02-11T21:24:58;8.20;59.30
4960;DHT22;2495;48.200;11.532;2023-02-11T21:30:02;8.20;58.20
4960;DHT22;2495;48.200;11.532;2023-02-11T21:35:10;8.20;58.90
4960;DHT22;2495;48.200;11.532;2023-02-11T21:40:21;8.20;58.90
4960;DHT22;2495;48.200;11.532;2023-02-11T21:45:59;8.20;58.90
4960;DHT22;2495;48.200;11.532;2023-02-11T21:51:21;8.10;58.80
4960;DHT22;2495;48.200;11.532;2023-02-11T21:56:20;8.30;59.10
4960;DHT22;2495;48.200;11.532;2023-02-11T22:01:28;8.20;59.10
4960;DHT22;2495;48.200;11.532;2023-02-11T22:06:29;8.20;60.10
4960;DHT22;2495;48.200;11.532;2023-02-11T22:11:33;8.20;59.70
4960;DHT22;2495;48.200;11.532;2023-02-11T22:16:34;8.30;59.50
4960;DHT22;2495;48.200;11.532;2023-02-11T22:21:35;8.60;60.10
4960;DHT22;2495;48.200;11.532;2023-02-11T22:26:36;8.60;59.50
4960;DHT22;2495;48.200;11.532;2023-02-11T22:31:38;8.60;59.40
4960;DHT22;2495;48.200;11.532;2023-02-11T22:36:39;8.60;59.50
4960;DHT22;2495;48.200;11.532;2023-02-11T22:41:41;8.50;59.50
4960;DHT22;2495;48.200;11.532;2023-02-11T22:46:42;8.70;60.60
4960;DHT22;2495;48.200;11.532;2023-02-11T22:51:43;8.70;59.80
4960;DHT22;2495;48.200;11.532;2023-02-11T22:56:45;8.60;59.70
4960;DHT22;2495;48.200;11.532;2023-02-11T23:01:46;8.50;59.80
4960;DHT22;2495;48.200;11.532;2023-02-11T23:06:47;8.50;60.20
4960;DHT22;2495;48.200;11.532;2023-02-11T23:11:48;8.40;60.30
4960;DHT22;2495;48.200;11.532;2023-02-11T23:16:53;8.30;59.80
4960;DHT22;2495;48.200;11.532;2023-02-11T23:21:55;8.20;60.10
4960;DHT22;2495;48.200;11.532;2023-02-11T23:26:56;8.20;60.20
4960;DHT22;2495;48.200;11.532;2023-02-11T23:31:57;8.20;60.10
4960;DHT22;2495;48.200;11.532;2023-02-11T23:36:59;8.20;61.30
4960;DHT22;2495;48.200;11.532;2023-02-11T23:42:01;8.20;60.40
4960;DHT22;2495;48.200;11.532;2023-02-11T23:47:02;8.10;60.20
4960;DHT22;2495;48.200;11.532;2023-02-11T23:52:04;8.10;60.50
4960;DHT22;2495;48.200;11.532;2023-02-11T23:57:05;8.10;60.60
